createdAt,value
2019-04-29T00:00:44.754Z,10.27
2019-04-29T00:03:14.123Z,17.17
2019-04-29T00:05:43.497Z,14.40
2019-04-29T00:08:12.848Z,9.07
2019-04-29T00:10:42.199Z,13.10
2019-04-29T00:13:11.553Z,14.67
2019-04-29T00:15:58.275Z,14.87
2019-04-29T00:18:38.418Z,11.90
2019-04-29T00:21:07.796Z,8.67
2019-04-29T00:23:37.148Z,10.87
2019-04-29T00:26:06.611Z,13.03
2019-04-29T00:28:35.976Z,8.53
2019-04-29T00:31:05.306Z,10.03
2019-04-29T00:33:34.699Z,10.93
2019-04-29T00:36:04.096Z,11.10
2019-04-29T00:38:48.072Z,11.10
2019-04-29T00:41:28.635Z,10.50
2019-04-29T00:44:00.355Z,12.40
2019-04-29T00:46:29.706Z,12.17
2019-04-29T00:48:59.088Z,10.40
2019-04-29T00:51:28.441Z,14.47
2019-04-29T00:54:03.095Z,7.13
2019-04-29T00:56:32.436Z,9.53
2019-04-29T00:59:01.822Z,11.60
2019-04-29T01:01:31.303Z,12.23
2019-04-29T01:04:00.647Z,10.57
2019-04-29T01:06:30.029Z,11.20
2019-04-29T01:08:59.403Z,12.73
2019-04-29T01:11:28.755Z,6.40
2019-04-29T01:13:58.082Z,13.60
2019-04-29T01:16:27.449Z,11.80
2019-04-29T01:18:56.827Z,7.13
2019-04-29T01:21:27.235Z,7.63
2019-04-29T01:23:56.601Z,9.37
2019-04-29T01:26:59.911Z,8.60
2019-04-29T01:29:29.836Z,8.57
2019-04-29T01:31:59.258Z,8.60
2019-04-29T01:34:33.430Z,10.23
2019-04-29T01:37:02.822Z,16.37
2019-04-29T01:39:47.417Z,9.20
2019-04-29T01:42:29.107Z,10.00
2019-04-29T01:44:58.461Z,10.90
2019-04-29T01:47:27.802Z,9.03
2019-04-29T01:49:57.163Z,9.40
2019-04-29T01:52:26.515Z,12.40
2019-04-29T01:54:55.897Z,9.57
2019-04-29T01:57:25.237Z,10.07
2019-04-29T01:59:54.574Z,9.23
2019-04-29T02:02:23.911Z,7.77
2019-04-29T02:04:53.264Z,8.30
2019-04-29T02:07:22.639Z,10.80
2019-04-29T02:10:06.910Z,13.00
2019-04-29T02:12:36.295Z,13.30
2019-04-29T02:15:06.252Z,10.97
2019-04-29T02:17:35.581Z,10.40
2019-04-29T02:20:05.476Z,9.93
2019-04-29T02:22:43.097Z,14.90
2019-04-29T02:25:17.321Z,7.63
2019-04-29T02:27:46.663Z,9.43
2019-04-29T02:30:35.486Z,10.83
2019-04-29T02:33:04.839Z,11.93
2019-04-29T02:35:34.182Z,9.43
2019-04-29T02:38:05.004Z,11.97
2019-04-29T02:40:40.920Z,8.53
2019-04-29T02:43:15.530Z,8.57
2019-04-29T02:45:46.124Z,8.27
2019-04-29T02:48:15.478Z,14.50
2019-04-29T02:50:44.790Z,9.53
2019-04-29T02:53:14.147Z,10.80
2019-04-29T02:55:47.975Z,9.47
2019-04-29T02:58:34.809Z,8.00
2019-04-29T03:01:23.287Z,6.90
2019-04-29T03:04:02.766Z,6.90
2019-04-29T03:06:32.112Z,7.43
2019-04-29T03:09:01.491Z,7.07
2019-04-29T03:11:30.963Z,9.60
2019-04-29T03:14:01.318Z,7.07
2019-04-29T03:16:30.638Z,11.57
2019-04-29T03:19:04.445Z,6.80
2019-04-29T03:21:42.140Z,7.53
2019-04-29T03:24:11.489Z,3.87
2019-04-29T03:26:40.842Z,6.73
2019-04-29T03:29:22.231Z,7.50
2019-04-29T03:31:56.724Z,6.17
2019-04-29T03:34:26.155Z,5.87
2019-04-29T03:36:55.536Z,7.23
2019-04-29T03:39:24.921Z,7.57
2019-04-29T03:41:54.292Z,9.63
2019-04-29T03:44:25.914Z,8.23
2019-04-29T03:46:55.271Z,4.33
2019-04-29T03:49:24.610Z,7.33
2019-04-29T03:51:53.962Z,6.53
2019-04-29T03:54:23.293Z,5.67
2019-04-29T03:56:53.837Z,6.40
2019-04-29T03:59:23.195Z,7.03
2019-04-29T04:02:14.206Z,5.70
2019-04-29T04:05:14.353Z,6.93
2019-04-29T04:07:50.893Z,4.93
2019-04-29T04:10:20.276Z,4.70
2019-04-29T04:12:49.656Z,8.07
2019-04-29T04:15:18.968Z,4.17
2019-04-29T04:17:57.741Z,5.70
2019-04-29T04:20:27.338Z,4.03
2019-04-29T04:22:56.709Z,5.53
2019-04-29T04:25:27.232Z,4.13
2019-04-29T04:27:56.593Z,4.40
2019-04-29T04:30:25.926Z,6.73
2019-04-29T04:32:55.294Z,3.30
2019-04-29T04:35:24.645Z,2.73
2019-04-29T04:37:54.014Z,4.43
2019-04-29T04:40:29.680Z,5.07
2019-04-29T04:43:00.830Z,4.17
2019-04-29T04:45:30.171Z,5.10
2019-04-29T04:47:59.548Z,3.17
2019-04-29T04:50:28.887Z,3.60
2019-04-29T04:52:58.209Z,3.33
2019-04-29T04:55:30.164Z,5.63
2019-04-29T04:58:01.822Z,2.07
2019-04-29T05:00:33.035Z,3.53
2019-04-29T05:03:02.363Z,2.40
2019-04-29T05:05:32.494Z,4.47
2019-04-29T05:08:01.845Z,2.93
2019-04-29T05:10:31.219Z,2.20
2019-04-29T05:13:00.572Z,3.00
2019-04-29T05:15:33.048Z,2.73
2019-04-29T05:18:02.411Z,2.80
2019-04-29T05:20:31.748Z,4.03
2019-04-29T05:23:01.168Z,5.30
2019-04-29T05:25:31.429Z,3.70
2019-04-29T05:28:01.275Z,4.20
2019-04-29T05:30:30.622Z,3.07
2019-04-29T05:32:59.947Z,3.07
2019-04-29T05:35:35.444Z,4.47
2019-04-29T05:38:19.814Z,3.90
2019-04-29T05:40:51.028Z,6.00
2019-04-29T05:43:27.114Z,5.03
2019-04-29T05:46:10.615Z,3.93
2019-04-29T05:48:39.980Z,2.43
2019-04-29T05:51:28.587Z,2.23
2019-04-29T05:53:59.205Z,6.20
2019-04-29T05:56:28.531Z,3.00
2019-04-29T05:58:57.891Z,3.07
2019-04-29T06:01:28.730Z,4.47
2019-04-29T06:03:58.052Z,3.50
2019-04-29T06:06:27.491Z,4.53
2019-04-29T06:08:56.844Z,2.90
2019-04-29T06:11:26.220Z,2.10
2019-04-29T06:13:55.549Z,4.17
2019-04-29T06:16:24.883Z,4.23
2019-04-29T06:18:59.810Z,3.50
2019-04-29T06:21:25.270Z,5.67
2019-04-29T06:23:54.859Z,6.43
2019-04-29T06:26:27.918Z,5.20
2019-04-29T06:28:58.280Z,6.57
2019-04-29T06:31:27.630Z,7.03
2019-04-29T06:34:00.732Z,10.50
2019-04-29T06:36:28.129Z,9.07
2019-04-29T06:38:57.457Z,7.17
2019-04-29T06:41:26.816Z,6.10
2019-04-29T06:43:56.338Z,7.00
2019-04-29T06:46:27.298Z,8.17
2019-04-29T06:49:09.543Z,2.73
2019-04-29T06:51:27.687Z,3.53
2019-04-29T06:53:57.021Z,5.67
2019-04-29T06:56:26.381Z,4.27
2019-04-29T06:58:55.736Z,4.47
2019-04-29T07:01:25.084Z,4.93
2019-04-29T07:03:55.782Z,5.03
2019-04-29T07:06:25.534Z,5.87
2019-04-29T07:08:54.906Z,4.50
2019-04-29T07:11:24.295Z,6.87
2019-04-29T07:13:57.692Z,4.20
2019-04-29T07:16:27.221Z,7.10
2019-04-29T07:18:55.887Z,8.33
2019-04-29T07:21:25.451Z,7.00
2019-04-29T07:23:54.877Z,8.13
2019-04-29T07:26:24.316Z,5.67
2019-04-29T07:28:56.864Z,9.53
2019-04-29T07:31:28.136Z,4.17
2019-04-29T07:33:57.932Z,5.07
2019-04-29T07:36:27.043Z,4.83
2019-04-29T07:38:56.884Z,7.00
2019-04-29T07:41:26.296Z,4.80
2019-04-29T07:43:55.657Z,9.40
2019-04-29T07:46:30.352Z,8.57
2019-04-29T07:49:01.592Z,4.50
2019-04-29T07:51:34.887Z,7.83
2019-04-29T07:54:01.828Z,8.43
2019-04-29T07:56:31.176Z,9.70
2019-04-29T07:59:03.006Z,5.30
2019-04-29T08:01:31.587Z,6.60
2019-04-29T08:04:01.090Z,7.60
2019-04-29T08:06:31.637Z,7.93
2019-04-29T08:09:07.136Z,8.73
2019-04-29T08:11:32.978Z,6.53
2019-04-29T08:14:03.366Z,8.13
2019-04-29T08:16:32.864Z,5.27
2019-04-29T08:19:04.706Z,6.17
2019-04-29T08:21:33.254Z,10.67
2019-04-29T08:24:02.610Z,8.63
2019-04-29T08:26:33.692Z,7.57
2019-04-29T08:29:03.040Z,9.13
2019-04-29T08:31:32.394Z,6.07
2019-04-29T08:34:27.538Z,5.60
2019-04-29T08:36:56.879Z,9.43
2019-04-29T08:39:29.307Z,7.27
2019-04-29T08:41:59.005Z,9.53
2019-04-29T08:44:54.741Z,7.97
2019-04-29T08:47:30.533Z,7.73
2019-04-29T08:49:56.882Z,9.40
2019-04-29T08:52:26.232Z,10.97
2019-04-29T08:54:57.273Z,8.33
2019-04-29T08:57:26.721Z,7.97
2019-04-29T08:59:56.056Z,9.40
2019-04-29T09:02:34.573Z,5.67
2019-04-29T09:04:56.482Z,6.70
2019-04-29T09:07:25.841Z,10.13
2019-04-29T09:09:56.053Z,9.37
2019-04-29T09:12:29.440Z,7.37
2019-04-29T09:14:57.423Z,7.83
2019-04-29T09:17:26.762Z,9.03
2019-04-29T09:19:56.130Z,7.07
2019-04-29T09:22:27.151Z,7.57
2019-04-29T09:25:28.592Z,8.23
2019-04-29T09:27:58.774Z,8.47
2019-04-29T09:30:28.098Z,11.63
2019-04-29T09:32:57.466Z,7.00
2019-04-29T09:35:28.770Z,8.83
2019-04-29T09:37:58.598Z,9.00
2019-04-29T09:40:31.141Z,10.13
2019-04-29T09:43:21.393Z,8.77
2019-04-29T09:46:18.581Z,9.80
2019-04-29T09:48:47.475Z,9.53
2019-04-29T09:51:18.228Z,7.10
2019-04-29T09:53:47.917Z,7.73
2019-04-29T09:56:17.245Z,9.13
2019-04-29T09:58:46.607Z,8.93
2019-04-29T10:01:23.873Z,6.97
2019-04-29T10:04:21.466Z,6.60
2019-04-29T10:06:53.052Z,9.80
2019-04-29T10:09:22.989Z,7.77
2019-04-29T10:11:52.366Z,8.70
2019-04-29T10:14:21.801Z,12.37
2019-04-29T10:17:16.697Z,7.10
2019-04-29T10:20:04.398Z,8.67
2019-04-29T10:22:34.549Z,8.80
2019-04-29T10:25:03.915Z,8.13
2019-04-29T10:27:33.262Z,8.53
2019-04-29T10:30:02.743Z,6.63
2019-04-29T10:32:32.119Z,7.57
2019-04-29T10:35:03.524Z,8.80
2019-04-29T10:37:32.704Z,8.90
2019-04-29T10:40:19.781Z,7.17
2019-04-29T10:43:02.300Z,4.97
2019-04-29T10:45:49.225Z,8.63
2019-04-29T10:48:25.513Z,6.63
2019-04-29T10:50:57.066Z,7.63
2019-04-29T10:53:28.869Z,7.53
2019-04-29T10:56:00.903Z,5.37
2019-04-29T10:58:35.459Z,8.17
2019-04-29T11:02:09.393Z,7.90
2019-04-29T11:04:36.143Z,6.20
2019-04-29T11:07:25.943Z,5.30
2019-04-29T11:09:57.506Z,6.43
2019-04-29T11:12:26.865Z,6.07
2019-04-29T11:14:56.536Z,6.50
2019-04-29T11:17:27.759Z,10.97
2019-04-29T11:19:57.590Z,12.77
2019-04-29T11:22:34.007Z,8.43
2019-04-29T11:25:21.064Z,4.77
2019-04-29T11:27:55.974Z,5.67
2019-04-29T11:30:26.053Z,9.23
2019-04-29T11:33:13.220Z,7.23
2019-04-29T11:35:59.150Z,3.83
2019-04-29T11:38:33.367Z,8.00
2019-04-29T11:41:01.039Z,5.47
2019-04-29T11:43:31.197Z,6.00
2019-04-29T11:46:00.714Z,4.50
2019-04-29T11:48:30.074Z,6.27
2019-04-29T11:51:18.340Z,4.83
2019-04-29T11:53:47.958Z,8.43
2019-04-29T11:56:17.292Z,4.70
2019-04-29T11:59:04.524Z,6.17
2019-04-29T12:01:53.487Z,6.40
2019-04-29T12:07:34.042Z,5.83
2019-04-29T12:10:06.633Z,4.70
2019-04-29T12:12:34.944Z,6.73
2019-04-29T12:15:20.837Z,5.03
2019-04-29T12:18:18.501Z,5.47
2019-04-29T12:21:21.973Z,4.57
2019-04-29T12:23:52.106Z,6.40
2019-04-29T12:26:22.659Z,5.63
2019-04-29T12:28:52.095Z,5.70
2019-04-29T12:31:36.962Z,6.03
2019-04-29T12:34:28.326Z,7.13
2019-04-29T12:36:57.676Z,5.47
2019-04-29T12:39:55.016Z,3.97
2019-04-29T12:42:42.156Z,4.63
2019-04-29T12:45:28.160Z,6.60
2019-04-29T12:47:57.470Z,5.60
2019-04-29T12:50:27.316Z,5.83
2019-04-29T12:52:56.692Z,6.27
2019-04-29T12:55:45.016Z,5.70
2019-04-29T12:58:07.838Z,6.83
2019-04-29T13:00:47.385Z,7.57
2019-04-29T13:03:24.680Z,6.50
2019-04-29T13:06:05.533Z,4.60
2019-04-29T13:08:39.527Z,6.47
2019-04-29T13:11:09.108Z,5.50
2019-04-29T13:13:38.483Z,5.90
2019-04-29T13:16:29.966Z,3.83
2019-04-29T13:19:25.224Z,5.80
2019-04-29T13:21:52.263Z,4.10
2019-04-29T13:24:24.907Z,3.73
2019-04-29T13:26:52.684Z,8.93
2019-04-29T13:29:27.135Z,14.33
2019-04-29T13:31:53.124Z,8.80
2019-04-29T13:34:30.993Z,3.67
2019-04-29T13:37:07.377Z,4.03
2019-04-29T13:39:39.971Z,6.20
2019-04-29T13:42:02.975Z,6.33
2019-04-29T13:44:41.799Z,4.80
2019-04-29T13:47:30.853Z,5.23
2019-04-29T13:50:38.365Z,7.43
2019-04-29T13:52:52.740Z,4.40
2019-04-29T13:55:46.567Z,7.63
2019-04-29T13:57:54.969Z,2.90
2019-04-29T14:00:36.560Z,3.63
2019-04-29T14:03:11.677Z,5.57
2019-04-29T14:05:41.802Z,4.07
2019-04-29T14:08:11.213Z,4.20
2019-04-29T14:10:40.576Z,4.93
2019-04-29T14:13:16.096Z,3.80
2019-04-29T14:15:40.986Z,4.97
2019-04-29T14:18:11.613Z,4.27
2019-04-29T14:20:41.477Z,3.47
2019-04-29T14:23:10.810Z,9.17
2019-04-29T14:25:40.137Z,5.03
2019-04-29T14:28:09.539Z,4.97
2019-04-29T14:30:39.447Z,4.20
2019-04-29T14:33:10.101Z,4.57
2019-04-29T14:35:48.365Z,4.90
2019-04-29T14:38:18.575Z,6.03
2019-04-29T14:40:47.924Z,6.33
2019-04-29T14:43:30.762Z,5.50
2019-04-29T14:46:30.115Z,3.43
2019-04-29T14:49:26.109Z,6.33
2019-04-29T14:51:55.475Z,5.20
2019-04-29T14:54:24.822Z,4.13
2019-04-29T14:56:54.183Z,5.20
2019-04-29T14:59:23.861Z,4.63
2019-04-29T15:02:03.982Z,6.30
2019-04-29T15:04:41.947Z,6.37
2019-04-29T15:07:11.339Z,3.63
2019-04-29T15:09:57.780Z,6.50
2019-04-29T15:13:19.602Z,7.50
2019-04-29T15:16:04.449Z,5.63
2019-04-29T15:18:49.139Z,5.80
2019-04-29T15:21:32.752Z,7.97
2019-04-29T15:23:58.536Z,5.80
2019-04-29T15:26:27.910Z,4.73
2019-04-29T15:28:57.322Z,4.47
2019-04-29T15:31:26.676Z,8.57
2019-04-29T15:33:56.022Z,5.87
2019-04-29T15:36:25.384Z,6.37
2019-04-29T15:39:08.533Z,9.80
2019-04-29T15:41:31.036Z,3.43
2019-04-29T15:44:07.089Z,6.27
2019-04-29T15:46:31.321Z,3.73
2019-04-29T15:48:59.021Z,5.03
2019-04-29T15:51:28.390Z,4.77
2019-04-29T15:53:57.754Z,11.17
2019-04-29T15:56:29.119Z,4.87
2019-04-29T15:58:59.452Z,7.67
2019-04-29T16:01:30.479Z,7.37
2019-04-29T16:04:02.066Z,6.10
2019-04-29T16:06:53.159Z,10.77
2019-04-29T16:09:51.168Z,6.90
2019-04-29T16:12:15.566Z,9.90
2019-04-29T16:14:49.046Z,9.33
2019-04-29T16:17:20.329Z,11.73
2019-04-29T16:19:47.238Z,9.63
2019-04-29T16:22:19.752Z,11.53
2019-04-29T16:24:47.667Z,7.83
2019-04-29T16:27:17.048Z,10.87
2019-04-29T16:29:51.445Z,9.87
2019-04-29T16:32:39.347Z,10.00
2019-04-29T16:35:09.118Z,11.53
2019-04-29T16:37:38.876Z,8.07
2019-04-29T16:40:09.545Z,11.83
2019-04-29T16:43:10.011Z,8.93
2019-04-29T16:46:01.170Z,9.63
2019-04-29T16:48:30.944Z,8.50
2019-04-29T16:51:00.326Z,11.80
2019-04-29T16:53:29.664Z,8.40
2019-04-29T16:55:59.016Z,9.13
2019-04-29T16:58:28.349Z,7.27
2019-04-29T17:00:57.713Z,7.97
2019-04-29T17:03:27.083Z,10.93
2019-04-29T17:05:56.384Z,9.53
2019-04-29T17:08:31.781Z,9.83
2019-04-29T17:11:17.582Z,15.17
2019-04-29T17:13:50.801Z,12.13
2019-04-29T17:16:21.827Z,12.00
2019-04-29T17:18:51.206Z,9.93
2019-04-29T17:21:20.568Z,14.77
2019-04-29T17:23:49.948Z,12.10
2019-04-29T17:26:20.955Z,8.93
2019-04-29T17:29:11.992Z,14.70
2019-04-29T17:31:57.091Z,10.67
2019-04-29T17:34:56.073Z,12.83
2019-04-29T17:36:58.913Z,13.37
2019-04-29T17:39:28.946Z,10.03
2019-04-29T17:42:04.120Z,10.47
2019-04-29T17:44:42.402Z,14.13
2019-04-29T17:47:49.120Z,14.77
2019-04-29T17:50:39.276Z,11.57
2019-04-29T17:53:27.738Z,13.00
2019-04-29T17:56:12.858Z,10.53
2019-04-29T17:58:51.743Z,11.23
2019-04-29T18:01:46.895Z,10.30
2019-04-29T18:04:58.762Z,12.37
2019-04-29T18:07:51.697Z,10.97
2019-04-29T18:10:29.454Z,11.50
2019-04-29T18:12:57.264Z,10.43
2019-04-29T18:15:40.374Z,10.23
2019-04-29T18:18:05.364Z,12.50
2019-04-29T18:20:55.216Z,10.50
2019-04-29T18:23:47.110Z,9.47
2019-04-29T18:26:22.080Z,11.00
2019-04-29T18:28:51.407Z,8.50
2019-04-29T18:31:20.805Z,11.70
2019-04-29T18:33:50.168Z,9.23
2019-04-29T18:36:24.169Z,10.63
2019-04-29T18:38:50.670Z,10.57
2019-04-29T18:41:24.668Z,9.40
2019-04-29T18:43:51.072Z,8.77
2019-04-29T18:46:20.457Z,9.70
2019-04-29T18:48:49.834Z,12.47
2019-04-29T18:51:20.837Z,9.40
2019-04-29T18:53:50.350Z,12.10
2019-04-29T18:56:19.718Z,15.07
2019-04-29T18:58:50.359Z,12.57
2019-04-29T19:01:19.973Z,9.80
2019-04-29T19:03:58.399Z,10.50
2019-04-29T19:06:27.794Z,11.20
2019-04-29T19:09:01.729Z,9.73
2019-04-29T19:11:32.123Z,12.20
2019-04-29T19:13:59.624Z,9.30
2019-04-29T19:16:28.956Z,9.43
2019-04-29T19:19:01.696Z,8.63
2019-04-29T19:21:31.456Z,12.43
2019-04-29T19:24:00.806Z,13.87
2019-04-29T19:26:30.102Z,8.73
2019-04-29T19:29:01.387Z,10.07
2019-04-29T19:31:30.535Z,11.17
2019-04-29T19:33:59.859Z,7.23
2019-04-29T19:36:29.239Z,10.80
2019-04-29T19:38:58.550Z,9.27
2019-04-29T19:41:27.908Z,8.80
2019-04-29T19:43:57.255Z,15.03
2019-04-29T19:46:36.965Z,11.70
2019-04-29T19:49:04.546Z,14.87
2019-04-29T19:51:28.814Z,13.07
2019-04-29T19:53:58.132Z,9.63
2019-04-29T19:56:28.650Z,11.37
2019-04-29T19:58:58.741Z,9.67
2019-04-29T20:01:32.405Z,13.00
2019-04-29T20:04:22.689Z,13.67
2019-04-29T20:06:58.071Z,14.23
2019-04-29T20:09:27.083Z,15.00
2019-04-29T20:11:55.830Z,21.47
2019-04-29T20:14:29.608Z,14.20
2019-04-29T20:17:17.667Z,20.17
2019-04-29T20:20:00.096Z,19.47
2019-04-29T20:22:27.214Z,18.03
2019-04-29T20:24:56.753Z,16.53
2019-04-29T20:27:30.780Z,18.00
2019-04-29T20:29:57.419Z,17.40
2019-04-29T20:32:31.719Z,21.67
2019-04-29T20:35:06.911Z,17.17
2019-04-29T20:37:31.402Z,20.17
2019-04-29T20:40:01.116Z,18.60
2019-04-29T20:42:30.599Z,15.70
2019-04-29T20:45:00.020Z,16.97
2019-04-29T20:47:37.510Z,19.30
2019-04-29T20:50:00.633Z,15.97
2019-04-29T20:52:42.285Z,15.77
2019-04-29T20:55:11.864Z,16.90
2019-04-29T20:57:41.403Z,16.87
2019-04-29T21:00:11.676Z,18.77
2019-04-29T21:02:41.241Z,17.87
2019-04-29T21:05:19.888Z,17.27
2019-04-29T21:07:42.238Z,23.43
2019-04-29T21:10:11.776Z,17.43
2019-04-29T21:13:02.876Z,19.83
2019-04-29T21:15:36.751Z,24.20
2019-04-29T21:18:06.213Z,17.53
2019-04-29T21:20:35.600Z,22.67
2019-04-29T21:23:04.950Z,19.47
2019-04-29T21:25:35.393Z,21.73
2019-04-29T21:28:05.507Z,20.87
2019-04-29T21:30:37.905Z,28.00
2019-04-29T21:33:08.229Z,19.37
2019-04-29T21:35:57.867Z,20.97
2019-04-29T21:39:01.400Z,23.20
2019-04-29T21:41:43.588Z,26.60
2019-04-29T21:44:12.953Z,23.10
2019-04-29T21:46:42.293Z,20.03
2019-04-29T21:49:12.675Z,22.27
2019-04-29T21:51:46.572Z,25.83
2019-04-29T21:54:14.316Z,23.70
2019-04-29T21:56:47.832Z,22.17
2019-04-29T21:59:15.794Z,23.73
2019-04-29T22:01:45.653Z,26.20
2019-04-29T22:04:15.050Z,28.30
2019-04-29T22:06:47.217Z,25.90
2019-04-29T22:09:18.185Z,25.17
2019-04-29T22:11:47.725Z,22.57
2019-04-29T22:14:17.137Z,24.27
2019-04-29T22:16:47.623Z,25.90
2019-04-29T22:19:17.703Z,19.47
2019-04-29T22:21:47.026Z,29.47
2019-04-29T22:24:16.481Z,24.23
2019-04-29T22:26:45.821Z,21.73
2019-04-29T22:29:15.190Z,22.90
2019-04-29T22:31:45.862Z,26.10
2019-04-29T22:34:19.056Z,27.50
2019-04-29T22:36:48.263Z,23.87
2019-04-29T22:39:17.407Z,23.73
2019-04-29T22:42:04.546Z,27.53
2019-04-29T22:44:35.900Z,27.13
2019-04-29T22:47:05.721Z,25.97
2019-04-29T22:49:35.438Z,27.13
2019-04-29T22:52:04.867Z,27.73
2019-04-29T22:54:35.337Z,25.30
2019-04-29T22:57:05.768Z,31.77
2019-04-29T22:59:35.440Z,28.83
2019-04-29T23:02:05.849Z,27.30
2019-04-29T23:04:35.249Z,25.73
2019-04-29T23:07:04.673Z,29.50
2019-04-29T23:09:36.551Z,24.50
2019-04-29T23:12:05.499Z,25.87
2019-04-29T23:14:36.097Z,30.80
2019-04-29T23:17:12.052Z,30.73
2019-04-29T23:19:36.786Z,29.90
2019-04-29T23:22:42.371Z,34.10
2019-04-29T23:25:21.832Z,26.80
2019-04-29T23:27:52.669Z,27.83
2019-04-29T23:30:25.133Z,29.00
2019-04-29T23:32:56.116Z,26.43
2019-04-29T23:35:25.552Z,31.30
2019-04-29T23:37:58.742Z,28.73
2019-04-29T23:40:25.987Z,28.77
2019-04-29T23:42:57.315Z,25.90
2019-04-29T23:45:26.456Z,30.80
2019-04-29T23:47:55.803Z,25.23
2019-04-29T23:50:25.754Z,25.90
2019-04-29T23:52:56.219Z,27.90
2019-04-29T23:55:29.087Z,32.23
2019-04-29T23:58:22.546Z,25.70
